PWSweather.com
Personal Weather Stations
Station Observations

AwhituWaiuku, CA 268400

Lat: -37.058, Lon: -174.6346

Elevation: 250

Station Type: Personal

http://www.weather-display.com/windy/gb/grahamsbeach.htm

Latest ConditionsUpdated 3:30:13 PM GMT-12:48 Tuesday, Nov 25, 2014
Currently Today's Max Today's Min Today's Average
Temperature 64.4°F18.0°C 68.0°F20.0°C 63.1°F17.3°C 64.8°F18.2°C
Dew Point 51.5°F10.8°C 62.6°F17.0°C 51.5°F10.8°C 58.9°F14.9°C
Winds 12.7 mph SW20.4 kmh SW 17.3 mph W27.8 kmh W - 4.7 mph 7.6 kmh
Wind Gusts 12.7 mph20.4 kmh 17.3 mph27.8 kmh - -
Humidity 63% 98% 63% 83%
Pressure 29.97 in1014.9 mb 30.01 in1016.3 mb 29.91 in1012.9 mb -
Precipitation - 0.08 in2.0 mm - -
Hour Temp Dew Point Humidity Winds Wind Gusts Pressure Precip Precip Rate Daily Precip Total
03:30 PM 64.4°F18.0°C 51.5°F10.8°C 63% 12.7 mph SW20.4 kmh SW 12.7 mph20.4 kmh 29.97 in1014.9 mb 0.00 in0.0 mm 0.00 in/hr0.0 mm/hr 0.08 in2.0 mm
03:00 PM 64.4°F18.0°C 51.5°F10.8°C 63% 12.7 mph SW20.4 kmh SW 12.7 mph20.4 kmh 29.97 in1014.9 mb 0.00 in0.0 mm 0.00 in/hr0.0 mm/hr 0.08 in2.0 mm
02:30 PM 64.4°F18.0°C 51.5°F10.8°C 63% 12.7 mph SW20.4 kmh SW 12.7 mph20.4 kmh 29.97 in1014.9 mb 0.00 in0.0 mm 0.00 in/hr0.0 mm/hr 0.08 in2.0 mm
02:00 PM 66.2°F19.0°C 53.2°F11.8°C 63% 16.1 mph SW25.9 kmh SW 16.1 mph25.9 kmh 29.97 in1014.9 mb 0.00 in0.0 mm 0.00 in/hr0.0 mm/hr 0.08 in2.0 mm
01:30 PM 66.2°F19.0°C 53.2°F11.8°C 63% 16.1 mph SW25.9 kmh SW 16.1 mph25.9 kmh 29.97 in1014.9 mb 0.08 in2.0 mm 0.16 in/hr4.1 mm/hr 0.08 in2.0 mm
01:00 PM 64.0°F17.8°C 58.7°F14.8°C 83% Calm Calm -- 29.95 in1014.2 mb 0.00 in0.0 mm 0.00 in/hr0.0 mm/hr 0.00 in0.0 mm
12:30 PM 65.1°F18.4°C 59.8°F15.4°C 83% Calm Calm -- 29.96 in1014.6 mb 0.00 in0.0 mm 0.00 in/hr0.0 mm/hr 0.00 in0.0 mm
12:00 PM 66.2°F19.0°C 60.9°F16.1°C 83% Calm Calm -- 29.96 in1014.6 mb 0.00 in0.0 mm 0.00 in/hr0.0 mm/hr 0.00 in0.0 mm
11:30 AM 66.2°F19.0°C 60.9°F16.1°C 83% 17.3 mph W27.8 kmh W 17.3 mph27.8 kmh 29.94 in1013.9 mb 0.00 in0.0 mm 0.00 in/hr0.0 mm/hr 0.00 in0.0 mm
11:00 AM 68.0°F20.0°C 59.0°F15.0°C 73% 13.8 mph W22.2 kmh W 13.8 mph22.2 kmh 29.94 in1013.9 mb 0.00 in0.0 mm 0.00 in/hr0.0 mm/hr 0.00 in0.0 mm
10:30 AM 68.0°F20.0°C 59.0°F15.0°C 73% Calm Calm -- 29.93 in1013.5 mb 0.00 in0.0 mm 0.00 in/hr0.0 mm/hr 0.00 in0.0 mm
10:00 AM 68.0°F20.0°C 54.9°F12.7°C 63% Calm Calm -- 29.92 in1013.2 mb 0.00 in0.0 mm 0.00 in/hr0.0 mm/hr 0.00 in0.0 mm
09:30 AM 68.0°F20.0°C 54.9°F12.7°C 63% 13.8 mph W22.2 kmh W 13.8 mph22.2 kmh 29.93 in1013.5 mb 0.00 in0.0 mm 0.00 in/hr0.0 mm/hr 0.00 in0.0 mm
09:00 AM 68.0°F20.0°C 54.9°F12.7°C 63% 9.2 mph NW14.8 kmh NW 9.2 mph14.8 kmh 29.94 in1013.9 mb 0.00 in0.0 mm 0.00 in/hr0.0 mm/hr 0.00 in0.0 mm
08:30 AM 68.0°F20.0°C 54.9°F12.7°C 63% 9.2 mph NW14.8 kmh NW 9.2 mph14.8 kmh 29.94 in1013.9 mb 0.00 in0.0 mm 0.00 in/hr0.0 mm/hr 0.00 in0.0 mm
08:00 AM 66.2°F19.0°C 53.2°F11.8°C 63% 16.1 mph NW25.9 kmh NW 16.1 mph25.9 kmh 29.95 in1014.2 mb 0.00 in0.0 mm 0.00 in/hr0.0 mm/hr 0.00 in0.0 mm
07:30 AM 66.2°F19.0°C 53.2°F11.8°C 63% Calm Calm -- 29.94 in1013.9 mb 0.00 in0.0 mm 0.00 in/hr0.0 mm/hr 0.00 in0.0 mm
07:00 AM 63.1°F17.3°C 62.6°F17.0°C 98% Calm Calm -- 30.00 in1015.9 mb 0.00 in0.0 mm 0.00 in/hr0.0 mm/hr 0.00 in0.0 mm
06:30 AM 63.1°F17.3°C 62.6°F17.0°C 98% Calm Calm -- 30.01 in1016.3 mb 0.00 in0.0 mm 0.00 in/hr0.0 mm/hr 0.00 in0.0 mm
06:00 AM 63.1°F17.3°C 62.6°F17.0°C 98% Calm Calm -- 29.92 in1013.2 mb 0.00 in0.0 mm 0.00 in/hr0.0 mm/hr 0.00 in0.0 mm
05:30 AM 63.1°F17.3°C 62.6°F17.0°C 98% Calm Calm -- 29.93 in1013.5 mb 0.00 in0.0 mm 0.00 in/hr0.0 mm/hr 0.00 in0.0 mm
05:00 AM 63.1°F17.3°C 62.6°F17.0°C 98% Calm Calm -- 29.92 in1013.2 mb 0.00 in0.0 mm 0.00 in/hr0.0 mm/hr 0.00 in0.0 mm
04:30 AM 63.1°F17.3°C 62.6°F17.0°C 98% Calm Calm -- 29.92 in1013.2 mb 0.00 in0.0 mm 0.00 in/hr0.0 mm/hr 0.00 in0.0 mm
04:00 AM 63.1°F17.3°C 62.6°F17.0°C 98% Calm Calm -- 29.91 in1012.9 mb 0.00 in0.0 mm 0.00 in/hr0.0 mm/hr 0.00 in0.0 mm
03:30 AM 63.1°F17.3°C 62.6°F17.0°C 98% Calm Calm -- 29.91 in1012.9 mb 0.00 in0.0 mm 0.00 in/hr0.0 mm/hr 0.00 in0.0 mm
03:00 AM 63.1°F17.3°C 62.6°F17.0°C 98% Calm Calm -- 29.92 in1013.2 mb 0.00 in0.0 mm 0.00 in/hr0.0 mm/hr 0.00 in0.0 mm
02:30 AM 63.1°F17.3°C 62.6°F17.0°C 98% Calm Calm -- 29.93 in1013.5 mb 0.00 in0.0 mm 0.00 in/hr0.0 mm/hr 0.00 in0.0 mm
02:00 AM 63.1°F17.3°C 62.6°F17.0°C 98% Calm Calm -- 29.95 in1014.2 mb 0.00 in0.0 mm 0.00 in/hr0.0 mm/hr 0.00 in0.0 mm
01:30 AM 63.1°F17.3°C 62.6°F17.0°C 98% Calm Calm -- 29.95 in1014.2 mb 0.00 in0.0 mm 0.00 in/hr0.0 mm/hr 0.00 in0.0 mm
01:00 AM 63.1°F17.3°C 62.6°F17.0°C 98% Calm Calm -- 29.96 in1014.6 mb 0.00 in0.0 mm 0.00 in/hr0.0 mm/hr 0.00 in0.0 mm
12:30 AM 63.1°F17.3°C 62.6°F17.0°C 98% Calm Calm -- 29.98 in1015.2 mb 0.00 in0.0 mm 0.00 in/hr0.0 mm/hr 0.00 in0.0 mm
12:00 AM 63.1°F17.3°C 62.6°F17.0°C 98% Calm Calm -- 29.98 in1015.2 mb 0.00 in0.0 mm 0.00 in/hr0.0 mm/hr 0.00 in0.0 mm